Time;durP1;ratioP1;P1;durP2;ratioP2;P2;SDS_P1;SDS_P2;PMS_P1;PMS_P2;Temp;Humidity;BMP_temperature;BMP_pressure;BME280_temperature;BME280_humidity;BME280_pressure;Samples;Min_cycle;Max_cycle;Signal;HPM_P1;HPM_P2
2022/11/22 00:01:05;;;;;;;13.90;3.08;;;;;;;5.67;100.00;98951.38;4956201;28;20069;-82
2022/11/22 00:03:31;;;;;;;14.20;4.28;;;;;;;5.59;100.00;98953.97;4960391;28;20031;-82
2022/11/22 00:05:56;;;;;;;12.27;2.88;;;;;;;5.54;100.00;98945.97;4959700;28;20558;-83
2022/11/22 00:08:22;;;;;;;14.18;3.08;;;;;;;5.58;100.00;98948.06;4961770;28;20446;-83
2022/11/22 00:10:48;;;;;;;16.40;3.85;;;;;;;5.55;100.00;98955.28;4956607;28;20050;-82
2022/11/22 00:13:15;;;;;;;13.52;3.28;;;;;;;5.54;100.00;98951.94;4944723;28;20035;-83
2022/11/22 00:15:40;;;;;;;13.77;4.30;;;;;;;5.69;100.00;98959.75;4973176;28;20053;-80
2022/11/22 00:18:06;;;;;;;21.13;3.80;;;;;;;5.57;100.00;98955.94;4943920;28;20038;-82
2022/11/22 00:20:32;;;;;;;12.75;3.97;;;;;;;5.63;100.00;98958.63;4973120;28;20319;-82
2022/11/22 00:22:58;;;;;;;14.68;4.28;;;;;;;5.79;100.00;98950.03;4941807;28;20122;-82
2022/11/22 00:25:23;;;;;;;8.90;4.10;;;;;;;5.68;100.00;98958.13;4960613;28;20089;-82
2022/11/22 00:27:49;;;;;;;9.63;4.40;;;;;;;5.64;100.00;98959.44;4965429;28;20038;-82
2022/11/22 00:30:14;;;;;;;9.00;3.92;;;;;;;5.61;100.00;98958.00;4957354;28;20042;-82
2022/11/22 00:32:40;;;;;;;12.45;4.18;;;;;;;5.57;100.00;98961.88;4976984;28;20047;-82
2022/11/22 00:35:06;;;;;;;15.20;5.50;;;;;;;5.54;100.00;98977.66;4962062;28;20031;-81
2022/11/22 00:37:31;;;;;;;8.75;3.25;;;;;;;5.64;100.00;98969.72;4943842;28;20384;-81
2022/11/22 00:39:57;;;;;;;16.77;3.28;;;;;;;5.65;100.00;98973.88;4975999;28;20035;-81
2022/11/22 00:42:22;;;;;;;10.77;3.38;;;;;;;5.57;100.00;98961.88;4939604;28;20047;-82
2022/11/22 00:44:48;;;;;;;7.15;3.03;;;;;;;5.56;100.00;98957.72;4977260;28;20034;-81
2022/11/22 00:47:13;;;;;;;8.60;2.72;;;;;;;5.60;100.00;98960.75;4976938;28;20483;-81
2022/11/22 00:49:39;;;;;;;8.07;2.55;;;;;;;5.54;100.00;98962.22;4961935;28;20421;-82
2022/11/22 00:52:04;;;;;;;7.60;2.42;;;;;;;5.55;100.00;98966.38;4962117;28;20062;-82
2022/11/22 00:54:30;;;;;;;8.18;2.58;;;;;;;5.60;100.00;98965.88;4960748;28;20107;-81
2022/11/22 00:56:55;;;;;;;6.80;2.00;;;;;;;5.60;100.00;98968.47;4972754;28;20051;-81
2022/11/22 00:59:20;;;;;;;8.95;2.38;;;;;;;5.60;100.00;98968.47;4976038;28;20023;-81
2022/11/22 01:01:46;;;;;;;8.18;2.45;;;;;;;5.59;100.00;98964.28;4963551;28;20056;-82
2022/11/22 01:04:11;;;;;;;8.00;1.77;;;;;;;5.65;100.00;98963.59;4966349;28;20073;-82
2022/11/22 01:06:37;;;;;;;8.05;2.08;;;;;;;5.73;100.00;98965.34;4980931;28;20050;-82
2022/11/22 01:09:03;;;;;;;8.15;1.77;;;;;;;5.85;100.00;98961.41;4981445;28;20415;-81
2022/11/22 01:11:28;;;;;;;5.07;1.58;;;;;;;5.70;100.00;98956.19;4980497;28;20088;-82
2022/11/22 01:13:54;;;;;;;4.72;1.48;;;;;;;5.59;100.00;98954.78;4967023;28;20491;-82
2022/11/22 01:16:19;;;;;;;10.48;2.35;;;;;;;5.62;100.00;98961.38;4965545;28;20551;-82
2022/11/22 01:18:45;;;;;;;10.10;2.13;;;;;;;5.60;100.00;98961.53;4966342;28;20039;-82
2022/11/22 01:21:11;;;;;;;5.30;1.50;;;;;;;5.56;100.00;98972.34;4972949;28;20081;-82
2022/11/22 01:23:36;;;;;;;6.60;1.58;;;;;;;5.51;100.00;98975.41;4979389;28;20042;-82
2022/11/22 01:26:05;;;;;;;7.05;1.50;;;;;;;5.47;100.00;98981.84;4944323;28;20412;-82
2022/11/22 01:28:30;;;;;;;7.05;1.70;;;;;;;5.43;100.00;98971.09;4981600;28;20137;-82
2022/11/22 01:30:56;;;;;;;5.30;1.35;;;;;;;5.38;100.00;98975.94;4979841;28;20051;-82
2022/11/22 01:33:21;;;;;;;5.75;1.30;;;;;;;5.34;100.00;98973.88;4949923;28;20034;-82
2022/11/22 01:35:47;;;;;;;2.80;1.63;;;;;;;5.30;100.00;98982.88;4975609;28;20567;-82
2022/11/22 01:38:12;;;;;;;3.20;1.20;;;;;;;5.25;100.00;98978.22;4977303;28;20053;-82
2022/11/22 01:40:38;;;;;;;6.50;1.42;;;;;;;5.20;100.00;98973.59;4959725;28;20053;-82
2022/11/22 01:43:15;;;;;;;5.90;1.40;;;;;;;5.14;100.00;98969.13;4974223;28;20134;-82
2022/11/22 01:45:45;;;;;;;4.45;1.08;;;;;;;5.11;100.00;98966.88;4960835;28;20075;-82
2022/11/22 01:48:10;;;;;;;6.40;1.20;;;;;;;5.08;100.00;98974.91;4944155;28;20372;-82
2022/11/22 01:50:38;;;;;;;4.75;1.25;;;;;;;5.06;100.00;98976.84;4974981;28;20069;-82
2022/11/22 01:53:08;;;;;;;7.00;1.80;;;;;;;4.98;100.00;98980.22;4977549;28;20041;-82
2022/11/22 01:55:34;;;;;;;10.65;2.03;;;;;;;4.99;100.00;98970.75;4959683;28;20047;-82
2022/11/22 01:58:01;;;;;;;7.03;2.60;;;;;;;5.10;100.00;98969.59;4963551;28;20038;-81
2022/11/22 02:00:26;;;;;;;17.35;4.05;;;;;;;5.14;100.00;98971.69;4949305;28;20051;-81
2022/11/22 02:02:56;;;;;;;6.95;2.55;;;;;;;5.08;100.00;98974.91;4963932;28;20038;-82
2022/11/22 02:05:27;;;;;;;7.90;3.00;;;;;;;5.06;100.00;98980.19;4965018;28;20069;-81
2022/11/22 02:08:01;;;;;;;9.00;2.72;;;;;;;5.13;100.00;98984.69;4964196;28;20034;-81
2022/11/22 02:10:30;;;;;;;7.32;2.95;;;;;;;5.06;100.00;98984.53;4981040;28;20049;-81
2022/11/22 02:12:58;;;;;;;5.32;2.40;;;;;;;4.98;100.00;98985.38;4982516;28;20038;-81
2022/11/22 02:15:24;;;;;;;9.82;2.17;;;;;;;4.97;100.00;98993.22;4984047;28;20039;-81
2022/11/22 02:17:49;;;;;;;4.88;1.77;;;;;;;4.96;100.00;99001.91;4967320;28;20038;-81
2022/11/22 02:20:16;;;;;;;7.95;1.90;;;;;;;4.94;100.00;98998.72;4981347;28;20035;-81
2022/11/22 02:22:44;;;;;;;15.13;2.30;;;;;;;4.99;100.00;98999.81;4982032;28;20499;-81
2022/11/22 02:25:45;;;;;;;12.13;1.80;;;;;;;4.96;100.00;99002.72;4981804;28;20403;-81
2022/11/22 02:28:12;;;;;;;16.17;1.98;;;;;;;4.93;100.00;99005.59;4939381;28;20050;-81
2022/11/22 02:30:41;;;;;;;14.02;1.80;;;;;;;4.88;100.00;99006.09;4947223;28;20066;-82
2022/11/22 02:33:07;;;;;;;13.20;2.03;;;;;;;4.91;100.00;99015.22;4967148;28;20050;-81
2022/11/22 02:35:33;;;;;;;19.83;2.50;;;;;;;4.93;100.00;99007.38;4963008;28;20043;-81
2022/11/22 02:38:11;;;;;;;10.35;1.80;;;;;;;4.88;100.00;99018.94;4965168;28;20042;-81
2022/11/22 02:40:58;;;;;;;5.60;1.92;;;;;;;4.87;100.00;99022.47;4980112;28;20054;-82
2022/11/22 02:43:33;;;;;;;11.15;2.70;;;;;;;4.95;100.00;99013.94;4980127;28;20039;-81
2022/11/22 02:46:08;;;;;;;11.18;1.63;;;;;;;4.87;100.00;99008.81;4946954;28;20050;-82
2022/11/22 02:48:39;;;;;;;12.85;2.58;;;;;;;4.87;100.00;99019.88;4981776;28;20364;-82
2022/11/22 02:51:05;;;;;;;19.70;2.22;;;;;;;4.84;100.00;99020.22;4979543;28;20148;-81
2022/11/22 02:53:30;;;;;;;19.50;2.72;;;;;;;4.82;100.00;99019.59;4964719;28;20043;-81
2022/11/22 02:55:56;;;;;;;9.75;1.80;;;;;;;4.78;100.00;99012.34;4964507;28;20131;-81
2022/11/22 02:58:21;;;;;;;12.52;2.13;;;;;;;4.77;100.00;99021.84;4964217;28;20065;-83
2022/11/22 03:00:46;;;;;;;13.02;2.20;;;;;;;4.73;100.00;99025.69;4963024;28;20046;-81
2022/11/22 03:03:12;;;;;;;15.38;1.70;;;;;;;4.71;100.00;99039.63;4979988;28;20035;-81
2022/11/22 03:05:37;;;;;;;14.27;2.80;;;;;;;4.71;100.00;99035.31;4962744;28;20078;-82
2022/11/22 03:08:03;;;;;;;8.45;1.77;;;;;;;4.76;100.00;99034.84;4967269;28;20039;-81
2022/11/22 03:10:28;;;;;;;10.77;2.50;;;;;;;4.70;100.00;99033.72;4947714;28;20051;-81
2022/11/22 03:12:56;;;;;;;12.70;1.75;;;;;;;4.77;100.00;99039.81;4963285;28;20438;-81
2022/11/22 03:15:21;;;;;;;18.77;2.75;;;;;;;4.75;100.00;99046.88;4945019;28;20048;-81
2022/11/22 03:17:47;;;;;;;11.35;2.10;;;;;;;4.75;100.00;99048.66;4961702;28;20034;-81
2022/11/22 03:20:12;;;;;;;17.50;2.42;;;;;;;4.75;100.00;99043.50;4946466;28;20031;-81
2022/11/22 03:22:38;;;;;;;20.50;2.25;;;;;;;4.68;100.00;99051.84;4978293;28;20039;-80
2022/11/22 03:25:04;;;;;;;12.82;1.95;;;;;;;4.66;100.00;99053.75;4962651;28;20050;-81
2022/11/22 03:27:29;;;;;;;14.30;2.00;;;;;;;4.73;100.00;99064.22;4959843;28;20050;-81
2022/11/22 03:29:55;;;;;;;15.35;2.80;;;;;;;4.69;100.00;99060.38;4945991;28;20115;-81
2022/11/22 03:32:20;;;;;;;9.73;1.95;;;;;;;4.67;100.00;99059.69;4975918;28;20043;-82
2022/11/22 03:34:45;;;;;;;11.00;1.65;;;;;;;4.64;100.00;99052.34;4945272;28;20054;-81
2022/11/22 03:37:11;;;;;;;18.50;3.45;;;;;;;4.68;100.00;99058.75;4960985;28;20042;-82
2022/11/22 03:39:36;;;;;;;16.85;2.28;;;;;;;4.64;100.00;99067.75;4961234;28;20050;-81
2022/11/22 03:42:02;;;;;;;17.23;2.75;;;;;;;4.61;100.00;99078.31;4977445;28;20637;-81
2022/11/22 03:44:27;;;;;;;18.27;3.38;;;;;;;4.69;100.00;99065.50;4962040;28;20041;-80
2022/11/22 03:46:53;;;;;;;55.65;12.10;;;;;;;4.73;100.00;99077.06;4943579;28;20751;-81
2022/11/22 03:49:18;;;;;;;23.98;4.18;;;;;;;4.63;100.00;99069.50;4976293;28;20703;-81
2022/11/22 03:51:43;;;;;;;20.65;2.45;;;;;;;4.60;100.00;99069.81;4959288;28;20050;-82
2022/11/22 03:54:09;;;;;;;17.63;3.17;;;;;;;4.63;100.00;99077.22;4978002;28;20038;-82
2022/11/22 03:56:35;;;;;;;15.50;2.92;;;;;;;4.62;100.00;99080.72;4977539;28;20046;-81
2022/11/22 03:59:00;;;;;;;24.15;2.78;;;;;;;4.72;100.00;99079.78;4973086;28;20038;-82
2022/11/22 04:01:26;;;;;;;15.75;2.78;;;;;;;4.71;100.00;99078.97;4962075;28;20054;-82
2022/11/22 04:03:51;;;;;;;26.58;3.70;;;;;;;4.65;100.00;99077.84;4962627;28;20038;-81
2022/11/22 04:06:17;;;;;;;18.83;1.85;;;;;;;4.61;100.00;99080.88;4945522;28;20042;-82
2022/11/22 04:08:42;;;;;;;9.13;2.50;;;;;;;4.56;100.00;99081.38;4959609;28;20027;-82
2022/11/22 04:11:08;;;;;;;39.25;11.57;;;;;;;4.58;100.00;99086.34;4958848;28;20053;-80
2022/11/22 04:16:18;;;;;;;21.05;3.70;;;;;;;4.43;100.00;99089.53;4962261;28;20046;-82
2022/11/22 04:18:44;;;;;;;27.73;7.03;;;;;;;4.39;100.00;99084.84;4958038;28;20134;-80
2022/11/22 04:26:38;;;;;;;22.13;4.00;;;;;;;4.43;100.00;99081.84;4956376;28;20436;-80
2022/11/22 04:29:04;;;;;;;21.30;4.40;;;;;;;4.45;100.00;99079.91;4944699;28;20039;-81
2022/11/22 04:34:13;;;;;;;17.17;4.75;;;;;;;4.43;100.00;99091.31;4974083;28;20382;-81
2022/11/22 04:36:38;;;;;;;19.35;3.63;;;;;;;4.32;100.00;99099.31;4963069;28;20058;-81
2022/11/22 04:39:04;;;;;;;13.57;2.72;;;;;;;4.28;100.00;99093.66;4954862;28;20035;-83
2022/11/22 04:41:29;;;;;;;24.40;4.72;;;;;;;4.25;100.00;99093.97;4942437;28;20451;-81
2022/11/22 04:46:39;;;;;;;18.55;2.17;;;;;;;4.27;100.00;99092.84;4962551;28;20057;-81
2022/11/22 04:49:04;;;;;;;21.95;3.00;;;;;;;4.25;100.00;99088.84;4958775;28;20458;-81
2022/11/22 04:54:14;;;;;;;15.15;3.53;;;;;;;4.25;100.00;99094.78;4975349;28;20035;-81
2022/11/22 04:56:39;;;;;;;12.07;3.25;;;;;;;4.31;100.00;99098.47;4966600;28;20072;-81
2022/11/22 04:59:05;;;;;;;21.13;3.65;;;;;;;4.32;100.00;99094.97;4944534;28;20034;-80
2022/11/22 05:01:30;;;;;;;13.30;3.22;;;;;;;4.38;100.00;99093.53;4964529;28;20039;-80
2022/11/22 05:03:56;;;;;;;20.05;2.53;;;;;;;4.35;100.00;99096.41;4963032;28;20495;-81
2022/11/22 05:06:21;;;;;;;18.30;3.22;;;;;;;4.31;100.00;99098.47;4963055;28;20492;-79
2022/11/22 05:08:46;;;;;;;23.10;3.22;;;;;;;4.35;100.00;99099.78;4960863;28;20039;-82
2022/11/22 05:11:12;;;;;;;20.48;3.72;;;;;;;4.23;100.00;99104.38;4962359;28;20047;-82
2022/11/22 05:13:39;;;;;;;26.70;3.55;;;;;;;4.20;100.00;99097.03;4946874;28;20046;-80
2022/11/22 05:16:07;;;;;;;16.42;3.05;;;;;;;4.14;100.00;99100.19;4960460;28;20058;-82
2022/11/22 05:18:33;;;;;;;13.30;2.20;;;;;;;4.04;100.00;99096.97;4943881;28;20034;-81
2022/11/22 05:21:04;;;;;;;10.68;2.67;;;;;;;4.09;100.00;99105.81;4946442;28;20329;-82
2022/11/22 05:26:13;;;;;;;14.63;2.30;;;;;;;4.02;100.00;99109.94;4960789;28;20066;-82
2022/11/22 05:28:38;;;;;;;15.50;2.22;;;;;;;4.02;100.00;99104.81;4962254;28;20503;-82
2022/11/22 05:31:16;;;;;;;13.70;3.38;;;;;;;3.94;100.00;99112.47;4955606;28;20503;-82
2022/11/22 05:33:43;;;;;;;14.13;2.22;;;;;;;3.96;100.00;99115.69;4937380;28;21508;-81
2022/11/22 05:36:10;;;;;;;20.27;2.47;;;;;;;3.92;100.00;99116.13;4961464;28;20133;-81
2022/11/22 05:38:39;;;;;;;16.92;2.47;;;;;;;3.85;100.00;99116.75;4979031;28;20081;-80
2022/11/22 05:41:07;;;;;;;11.25;2.72;;;;;;;3.80;100.00;99115.59;4957084;28;20082;-80
2022/11/22 05:43:33;;;;;;;9.65;1.80;;;;;;;3.75;100.00;99121.22;4977401;28;20335;-81
2022/11/22 05:46:28;;;;;;;10.32;2.60;;;;;;;3.77;100.00;99127.00;4962140;28;20570;-81
2022/11/22 05:48:55;;;;;;;19.70;3.47;;;;;;;3.80;100.00;99131.00;4937396;28;20559;-81
2022/11/22 05:51:25;;;;;;;14.63;2.17;;;;;;;3.77;100.00;99127.00;4963192;28;20046;-81
2022/11/22 05:53:50;;;;;;;14.82;1.95;;;;;;;3.77;100.00;99127.00;4965221;28;20037;-81
2022/11/22 05:56:21;;;;;;;12.80;1.77;;;;;;;3.68;100.00;99133.03;4984185;28;20431;-82
2022/11/22 05:58:48;;;;;;;15.18;2.25;;;;;;;3.65;100.00;99134.13;4966472;28;20027;-81
2022/11/22 06:01:16;;;;;;;15.90;2.13;;;;;;;3.61;100.00;99139.72;4985694;28;20039;-82
2022/11/22 06:03:41;;;;;;;22.83;3.20;;;;;;;3.56;100.00;99135.03;4983981;28;20381;-81
2022/11/22 06:06:08;;;;;;;10.63;2.55;;;;;;;3.53;100.00;99135.34;4981628;28;20123;-81
2022/11/22 06:08:35;;;;;;;16.45;2.70;;;;;;;3.49;100.00;99134.84;4972095;28;20054;-80
2022/11/22 06:11:06;;;;;;;18.80;2.45;;;;;;;3.48;100.00;99128.13;4969374;28;20058;-81
2022/11/22 06:13:34;;;;;;;7.30;2.28;;;;;;;3.44;100.00;99139.59;4952888;28;20034;-81
2022/11/22 06:15:59;;;;;;;12.25;2.35;;;;;;;3.42;100.00;99141.50;4950252;28;20050;-81
2022/11/22 06:18:24;;;;;;;22.17;4.00;;;;;;;3.40;100.00;99145.97;4981604;28;20039;-81
2022/11/22 06:20:50;;;;;;;18.00;2.92;;;;;;;3.43;100.00;99145.69;4967139;28;20040;-81
2022/11/22 06:23:15;;;;;;;18.50;3.22;;;;;;;3.45;100.00;99148.13;4982396;28;20066;-80
2022/11/22 06:25:41;;;;;;;13.02;2.08;;;;;;;3.40;100.00;99147.75;4965154;28;20054;-81
2022/11/22 06:28:06;;;;;;;12.88;2.92;;;;;;;3.33;100.00;99142.41;4965919;28;20047;-80
2022/11/22 06:30:31;;;;;;;11.73;2.65;;;;;;;3.30;100.00;99148.63;4966073;28;20053;-81
2022/11/22 06:32:57;;;;;;;11.48;3.72;;;;;;;3.29;100.00;99141.09;4964792;28;20046;-81
2022/11/22 06:35:23;;;;;;;13.73;3.33;;;;;;;3.25;100.00;99145.72;4967702;28;20039;-79
2022/11/22 06:37:48;;;;;;;13.95;3.83;;;;;;;3.26;100.00;99143.97;4966157;28;20039;-81
2022/11/22 06:40:15;;;;;;;13.63;2.72;;;;;;;3.23;100.00;99147.63;4965226;28;20031;-81
2022/11/22 06:42:40;;;;;;;20.27;3.38;;;;;;;3.25;100.00;99145.72;4980656;28;20073;-80
2022/11/22 06:45:06;;;;;;;16.73;3.88;;;;;;;3.25;100.00;99144.91;4980263;28;20042;-82
2022/11/22 06:47:32;;;;;;;10.43;2.53;;;;;;;3.23;100.00;99144.25;4980524;28;20515;-81
2022/11/22 06:49:57;;;;;;;21.55;3.28;;;;;;;3.28;100.00;99148.00;4979750;28;20074;-81
2022/11/22 06:52:23;;;;;;;24.15;3.63;;;;;;;3.25;100.00;99150.84;4945974;28;20632;-81
2022/11/22 06:54:48;;;;;;;17.80;3.80;;;;;;;3.28;100.00;99148.00;4964026;28;20042;-82
2022/11/22 06:57:13;;;;;;;17.55;3.22;;;;;;;3.33;100.00;99147.53;4960718;28;20057;-79
2022/11/22 06:59:39;;;;;;;17.25;2.92;;;;;;;3.34;100.00;99145.78;4966006;28;21129;-80
2022/11/22 07:02:05;;;;;;;18.25;3.58;;;;;;;3.38;100.00;99136.84;4964879;28;20050;-80
2022/11/22 07:04:30;;;;;;;25.33;3.38;;;;;;;3.37;100.00;99145.47;4982528;28;20038;-81
2022/11/22 07:06:56;;;;;;;12.63;3.85;;;;;;;3.34;100.00;99154.28;4982863;28;20043;-80
2022/11/22 07:09:22;;;;;;;15.30;3.10;;;;;;;3.28;100.00;99160.81;4982861;28;20038;-81
2022/11/22 07:11:48;;;;;;;12.60;2.50;;;;;;;3.24;100.00;99159.50;4981235;28;20054;-81
2022/11/22 07:14:13;;;;;;;15.95;3.50;;;;;;;3.21;100.00;99164.09;4980309;28;20057;-81
2022/11/22 07:16:39;;;;;;;25.15;4.53;;;;;;;3.19;100.00;99166.00;4949799;28;20070;-80
2022/11/22 07:19:05;;;;;;;15.88;3.20;;;;;;;3.25;100.00;99160.28;4949710;28;20035;-80
2022/11/22 07:21:31;;;;;;;15.25;2.75;;;;;;;3.31;100.00;99167.38;4983534;28;20130;-80
2022/11/22 07:23:56;;;;;;;13.65;2.45;;;;;;;3.28;100.00;99171.06;4981298;28;20042;-80
2022/11/22 07:26:24;;;;;;;20.08;2.80;;;;;;;3.29;100.00;99177.75;4979468;28;20054;-80
2022/11/22 07:28:50;;;;;;;21.15;3.78;;;;;;;3.44;100.00;99178.03;4963386;28;20037;-79
2022/11/22 07:31:17;;;;;;;12.95;2.40;;;;;;;3.54;100.00;99177.16;4965771;28;20422;-79
2022/11/22 07:33:43;;;;;;;18.20;2.97;;;;;;;3.51;100.00;99184.19;4948206;28;20076;-80
2022/11/22 07:36:08;;;;;;;14.57;2.30;;;;;;;3.51;100.00;99180.81;4948294;28;20047;-80
2022/11/22 07:38:34;;;;;;;17.27;2.30;;;;;;;3.46;100.00;99186.38;4959577;28;20081;-80
2022/11/22 07:41:00;;;;;;;14.25;2.33;;;;;;;3.50;100.00;99186.88;4976815;28;20097;-79
2022/11/22 07:43:26;;;;;;;16.42;2.35;;;;;;;3.54;100.00;99188.19;4981927;28;20412;-80
2022/11/22 07:45:51;;;;;;;10.65;2.60;;;;;;;3.51;100.00;99191.88;4980123;28;20054;-81
2022/11/22 07:48:17;;;;;;;10.02;2.70;;;;;;;3.53;100.00;99191.72;4977968;28;20033;-79
2022/11/22 07:50:42;;;;;;;17.52;2.25;;;;;;;3.66;100.00;99201.59;4950225;28;20046;-80
2022/11/22 07:53:08;;;;;;;11.95;3.13;;;;;;;3.68;100.00;99205.59;4979789;28;20561;-80
2022/11/22 07:55:34;;;;;;;25.48;4.05;;;;;;;3.67;100.00;99200.63;4953026;28;20042;-80
2022/11/22 07:58:00;;;;;;;18.13;3.20;;;;;;;3.72;100.00;99197.63;4980780;28;20043;-79
2022/11/22 08:00:26;;;;;;;13.60;2.38;;;;;;;3.72;100.00;99198.41;4982214;28;20079;-80
2022/11/22 08:02:52;;;;;;;10.82;2.00;;;;;;;3.83;100.00;99197.38;4982032;28;20081;-80
2022/11/22 08:05:18;;;;;;;19.45;2.78;;;;;;;3.88;100.00;99202.81;4969197;28;20031;-79
2022/11/22 08:07:48;;;;;;;12.65;1.92;;;;;;;3.97;100.00;99199.34;4980322;28;20117;-78
2022/11/22 08:10:14;;;;;;;15.30;2.30;;;;;;;3.99;99.72;99207.69;4982333;28;20030;-80
2022/11/22 08:12:40;;;;;;;14.85;2.83;;;;;;;4.01;99.49;99203.25;4967733;28;20043;-79
2022/11/22 08:15:07;;;;;;;16.67;2.67;;;;;;;4.04;99.33;99200.38;4981108;28;20105;-78
2022/11/22 08:17:32;;;;;;;14.77;2.00;;;;;;;4.02;99.11;99209.97;4950523;28;20030;-79
2022/11/22 08:19:58;;;;;;;12.13;2.25;;;;;;;4.10;98.94;99204.06;4967174;28;20870;-80
2022/11/22 08:22:23;;;;;;;17.33;3.00;;;;;;;4.12;98.19;99207.28;4964574;28;20090;-79
2022/11/22 08:24:48;;;;;;;19.08;3.00;;;;;;;4.21;98.40;99208.94;4982741;28;20046;-79
2022/11/22 08:27:14;;;;;;;17.00;2.10;;;;;;;4.20;97.64;99217.63;4985910;28;20045;-79
2022/11/22 08:29:39;;;;;;;17.38;2.42;;;;;;;4.27;98.00;99212.66;4949459;28;20038;-78
2022/11/22 08:32:05;;;;;;;18.00;2.55;;;;;;;4.27;98.35;99210.88;4964861;28;20070;-79
2022/11/22 08:34:30;;;;;;;18.55;2.13;;;;;;;4.31;98.33;99213.94;4964490;28;20488;-78
2022/11/22 08:36:56;;;;;;;15.55;2.00;;;;;;;4.37;97.84;99212.53;4980854;28;20411;-79
2022/11/22 08:39:21;;;;;;;15.77;2.47;;;;;;;4.49;97.24;99217.25;4979049;28;20033;-79
2022/11/22 08:41:47;;;;;;;17.08;2.70;;;;;;;4.64;96.60;99217.44;4964183;28;20081;-78
2022/11/22 08:44:12;;;;;;;18.25;2.88;;;;;;;4.77;95.60;99222.16;4963199;28;20027;-78
2022/11/22 08:46:38;;;;;;;12.80;2.40;;;;;;;4.80;94.96;99216.72;4966111;28;20388;-77
2022/11/22 08:49:05;;;;;;;13.90;2.40;;;;;;;4.87;94.29;99225.38;4964175;28;20038;-79
2022/11/22 08:51:32;;;;;;;16.23;1.85;;;;;;;4.79;94.25;99222.78;4965894;28;20552;-78
2022/11/22 08:53:58;;;;;;;14.02;2.38;;;;;;;4.90;93.20;99226.84;4978928;28;20077;-80
2022/11/22 08:56:23;;;;;;;13.52;1.67;;;;;;;4.87;94.10;99230.50;4963422;28;20038;-79
2022/11/22 08:58:49;;;;;;;14.65;1.80;;;;;;;4.90;94.01;99228.59;4948900;28;20046;-79
2022/11/22 09:01:16;;;;;;;21.20;3.15;;;;;;;4.93;93.76;99236.78;4964340;28;20050;-78
2022/11/22 09:03:43;;;;;;;13.52;1.63;;;;;;;4.82;94.34;99240.47;4967818;28;20039;-78
2022/11/22 09:06:11;;;;;;;15.10;2.40;;;;;;;5.01;93.79;99244.53;4982556;28;20046;-79
2022/11/22 09:08:38;;;;;;;13.98;2.05;;;;;;;5.00;93.83;99236.97;4966711;28;20050;-79
2022/11/22 09:11:06;;;;;;;16.35;2.38;;;;;;;5.06;93.36;99237.13;4962422;28;20105;-78
2022/11/22 09:13:32;;;;;;;10.55;2.60;;;;;;;5.12;93.08;99229.75;4982490;28;20039;-78
2022/11/22 09:16:10;;;;;;;18.30;1.55;;;;;;;5.08;93.08;99236.97;4979009;28;20419;-79
2022/11/22 09:18:36;;;;;;;8.25;1.30;;;;;;;5.11;93.36;99231.53;4980401;28;20089;-80
2022/11/22 09:21:04;;;;;;;15.70;2.50;;;;;;;5.18;93.38;99227.38;4979784;28;20043;-79
2022/11/22 09:23:30;;;;;;;10.40;1.30;;;;;;;5.21;92.79;99224.47;4952760;28;20030;-80
2022/11/22 09:26:02;;;;;;;13.10;2.35;;;;;;;5.20;94.28;99233.16;4980963;28;20097;-79
2022/11/22 09:28:28;;;;;;;8.18;3.38;;;;;;;5.26;92.65;99226.56;4950239;28;20035;-79
2022/11/22 09:31:03;;;;;;;12.20;1.98;;;;;;;5.38;91.46;99232.19;4968445;28;20050;-79
2022/11/22 09:33:30;;;;;;;7.07;1.40;;;;;;;5.43;90.83;99228.16;4967816;28;20438;-79
2022/11/22 09:36:01;;;;;;;10.88;1.50;;;;;;;5.56;89.88;99232.03;4949589;28;20047;-78
2022/11/22 09:38:27;;;;;;;13.20;2.28;;;;;;;5.59;90.20;99232.50;4984416;28;20031;-78
2022/11/22 09:40:53;;;;;;;10.65;1.52;;;;;;;5.63;89.77;99227.84;4966217;28;20424;-79
2022/11/22 09:43:24;;;;;;;13.77;1.70;;;;;;;5.73;89.18;99230.25;4965837;28;20038;-80
2022/11/22 09:45:56;;;;;;;6.40;1.17;;;;;;;5.69;89.21;99234.91;4967748;28;20073;-80
2022/11/22 09:48:43;;;;;;;11.50;1.73;;;;;;;5.89;87.49;99232.78;4968263;28;20049;-79
2022/11/22 09:51:16;;;;;;;9.10;1.42;;;;;;;5.94;87.62;99222.81;4951168;28;20101;-80
2022/11/22 09:53:53;;;;;;;11.07;1.33;;;;;;;5.95;87.51;99223.59;4965864;28;20042;-78
2022/11/22 09:56:23;;;;;;;6.50;1.10;;;;;;;5.98;87.09;99229.25;4950770;28;20130;-78
2022/11/22 09:58:58;;;;;;;8.27;1.40;;;;;;;6.09;87.05;99220.41;4969793;28;20031;-80
2022/11/22 10:01:30;;;;;;;12.32;1.60;;;;;;;6.09;87.59;99228.13;4968707;28;20439;-79
2022/11/22 10:04:18;;;;;;;8.18;1.30;;;;;;;6.33;86.15;99219.53;4982726;28;20141;-78
2022/11/22 10:06:57;;;;;;;7.85;1.27;;;;;;;6.32;85.96;99215.34;4970223;28;20053;-79
2022/11/22 10:10:03;;;;;;;11.70;1.33;;;;;;;6.28;86.46;99215.84;4978983;28;20094;-77
2022/11/22 10:12:40;;;;;;;5.40;1.25;;;;;;;6.24;86.62;99205.88;4906403;29;20048;-80
2022/11/22 10:15:35;;;;;;;6.50;1.42;;;;;;;6.42;86.83;99208.22;4955384;28;21935;-78
2022/11/22 10:18:04;;;;;;;10.00;2.10;;;;;;;6.32;85.98;99207.59;4942335;28;20047;-78
2022/11/22 10:20:35;;;;;;;10.27;1.17;;;;;;;6.31;86.65;99195.72;4965945;28;20045;-80
2022/11/22 10:23:01;;;;;;;8.52;1.23;;;;;;;6.38;86.60;99206.13;4966327;28;20039;-79
2022/11/22 10:25:44;;;;;;;10.00;1.95;;;;;;;6.47;86.68;99194.03;4967951;28;20571;-77
2022/11/22 10:28:13;;;;;;;;;;;;;;;6.60;84.44;99189.16;4984698;28;20495;-77
2022/11/22 10:30:44;;;;;;;8.35;1.35;;;;;;;6.64;85.01;99192.97;4958251;28;19930;-77
2022/11/22 10:33:36;;;;;;;4.43;0.90;;;;;;;6.56;84.44;99186.09;4967634;28;20034;-77
2022/11/22 10:36:37;;;;;;;10.15;1.10;;;;;;;6.57;84.30;99186.91;4965926;28;20117;-77
2022/11/22 10:39:22;;;;;;;6.50;1.60;;;;;;;6.63;84.10;99181.88;4949157;28;20128;-77
2022/11/22 10:42:29;;;;;;;15.75;5.03;;;;;;;6.59;84.06;99170.31;4968061;28;20074;-78
2022/11/22 10:45:00;;;;;;;7.35;3.70;;;;;;;6.58;84.53;99183.38;4957987;28;20077;-78
2022/11/22 10:47:53;;;;;;;6.68;1.30;;;;;;;6.47;85.89;99181.16;4965713;28;20047;-78
2022/11/22 10:50:38;;;;;;;7.13;1.20;;;;;;;6.54;85.83;99185.47;4978310;28;20043;-78
2022/11/22 10:53:28;;;;;;;6.70;1.10;;;;;;;6.67;84.58;99173.78;4983675;28;20035;-78
2022/11/22 10:56:07;;;;;;;7.43;2.03;;;;;;;6.79;84.08;99173.25;4962274;28;20046;-77
2022/11/22 10:58:51;;;;;;;10.13;1.35;;;;;;;6.84;85.13;99167.59;4980197;28;20405;-77
2022/11/22 11:01:52;;;;;;;5.97;1.40;;;;;;;6.79;84.06;99162.16;4978850;28;20053;-77
2022/11/22 11:04:19;;;;;;;5.32;0.80;;;;;;;6.98;84.15;99159.09;4965656;28;20046;-78
2022/11/22 11:06:52;;;;;;;9.52;2.05;;;;;;;7.04;83.29;99152.47;4983438;28;20046;-79
2022/11/22 11:09:32;;;;;;;6.20;1.30;;;;;;;6.98;83.42;99150.56;4982109;28;20065;-77
2022/11/22 11:11:59;;;;;;;11.82;2.55;;;;;;;6.98;83.93;99143.63;4980441;28;20172;-77
2022/11/22 11:14:30;;;;;;;4.47;1.20;;;;;;;7.08;83.38;99145.97;4949973;28;20098;-78
2022/11/22 11:16:56;;;;;;;5.55;1.10;;;;;;;7.15;83.45;99148.66;4962732;28;20488;-77
2022/11/22 11:19:23;;;;;;;4.85;1.08;;;;;;;7.10;82.88;99145.81;4965965;28;20039;-78
2022/11/22 11:22:16;;;;;;;9.77;1.85;;;;;;;7.19;83.19;99148.13;4964547;28;20447;-76
2022/11/22 11:24:42;;;;;;;10.32;3.58;;;;;;;7.15;84.37;99144.31;4963390;28;20140;-78
2022/11/22 11:27:10;;;;;;;4.00;1.45;;;;;;;7.21;83.91;99141.06;4965048;28;20043;-77
2022/11/22 11:29:41;;;;;;;5.63;1.00;;;;;;;7.15;83.29;99143.50;4982902;28;20039;-80
2022/11/22 11:32:21;;;;;;;5.88;1.40;;;;;;;7.17;83.49;99146.72;4966730;28;20153;-78
2022/11/22 11:35:00;;;;;;;4.75;1.05;;;;;;;7.27;84.00;99136.97;4965259;28;20308;-80
2022/11/22 11:37:36;;;;;;;8.88;1.17;;;;;;;7.23;83.09;99140.84;4967712;28;20078;-77
2022/11/22 11:40:03;;;;;;;5.43;1.23;;;;;;;7.31;82.38;99133.06;4979461;28;20038;-78
2022/11/22 11:42:31;;;;;;;2.38;0.73;;;;;;;7.37;81.97;99139.31;4963139;28;20113;-78
2022/11/22 11:45:18;;;;;;;7.13;0.98;;;;;;;7.28;82.71;99136.00;4963895;28;20547;-77
2022/11/22 11:47:44;;;;;;;5.20;0.70;;;;;;;7.37;82.18;99136.72;4979275;28;20047;-77
2022/11/22 11:50:21;;;;;;;5.13;1.10;;;;;;;7.40;82.61;99133.78;4964374;28;20043;-76
2022/11/22 11:53:14;;;;;;;2.25;0.63;;;;;;;7.42;81.14;99142.13;4978007;28;20174;-78
2022/11/22 11:55:39;;;;;;;2.20;0.80;;;;;;;7.43;81.14;99130.84;4959873;28;20121;-78
2022/11/22 11:58:19;;;;;;;3.20;0.43;;;;;;;7.38;81.19;99128.81;4963965;28;20567;-79